sensor_id;sensor_type;location;lat;lon;timestamp;pressure;altitude;pressure_sealevel;temperature;humidity
55460;BME280;41326;45.302;-122.946;2023-03-26T00:00:59;101936.54;;;18.14;47.93
55460;BME280;41326;45.302;-122.946;2023-03-26T00:03:29;101934.36;;;18.23;47.73
55460;BME280;41326;45.302;-122.946;2023-03-26T00:06:04;101940.10;;;18.35;47.61
55460;BME280;41326;45.302;-122.946;2023-03-26T00:08:30;101934.58;;;18.48;47.33
55460;BME280;41326;45.302;-122.946;2023-03-26T00:11:00;101933.54;;;18.52;47.34
55460;BME280;41326;45.302;-122.946;2023-03-26T00:13:30;101934.82;;;18.48;47.30
55460;BME280;41326;45.302;-122.946;2023-03-26T00:16:01;101934.15;;;18.44;47.43
55460;BME280;41326;45.302;-122.946;2023-03-26T00:18:30;101937.16;;;18.44;47.42
55460;BME280;41326;45.302;-122.946;2023-03-26T00:21:03;101938.46;;;18.41;47.48
55460;BME280;41326;45.302;-122.946;2023-03-26T00:23:33;101934.25;;;18.49;47.39
55460;BME280;41326;45.302;-122.946;2023-03-26T00:26:02;101931.23;;;18.63;47.09
55460;BME280;41326;45.302;-122.946;2023-03-26T00:28:34;101930.35;;;18.70;47.03
55460;BME280;41326;45.302;-122.946;2023-03-26T00:31:04;101928.41;;;18.68;46.97
55460;BME280;41326;45.302;-122.946;2023-03-26T00:33:33;101925.26;;;18.59;47.22
55460;BME280;41326;45.302;-122.946;2023-03-26T00:36:05;101925.39;;;18.55;47.33
55460;BME280;41326;45.302;-122.946;2023-03-26T00:38:34;101920.98;;;18.52;47.31
55460;BME280;41326;45.302;-122.946;2023-03-26T00:41:06;101919.41;;;18.48;47.40
55460;BME280;41326;45.302;-122.946;2023-03-26T00:43:34;101920.58;;;18.43;47.59
55460;BME280;41326;45.302;-122.946;2023-03-26T00:46:05;101918.77;;;18.41;47.71
55460;BME280;41326;45.302;-122.946;2023-03-26T00:48:35;101916.11;;;18.35;47.74
55460;BME280;41326;45.302;-122.946;2023-03-26T00:51:05;101916.53;;;18.39;47.74
55460;BME280;41326;45.302;-122.946;2023-03-26T00:53:36;101918.16;;;18.52;47.61
55460;BME280;41326;45.302;-122.946;2023-03-26T00:56:06;101920.08;;;18.67;47.22
55460;BME280;41326;45.302;-122.946;2023-03-26T00:58:37;101922.31;;;18.69;47.02
55460;BME280;41326;45.302;-122.946;2023-03-26T01:01:10;101923.83;;;18.68;47.16
55460;BME280;41326;45.302;-122.946;2023-03-26T01:03:38;101924.79;;;18.67;47.09
55460;BME280;41326;45.302;-122.946;2023-03-26T01:06:09;101924.43;;;18.58;47.38
55460;BME280;41326;45.302;-122.946;2023-03-26T01:08:40;101927.34;;;18.54;47.49
55460;BME280;41326;45.302;-122.946;2023-03-26T01:11:11;101935.75;;;18.50;47.61
55460;BME280;41326;45.302;-122.946;2023-03-26T01:13:42;101934.20;;;18.48;47.70
55460;BME280;41326;45.302;-122.946;2023-03-26T01:16:14;101924.13;;;18.46;47.80
55460;BME280;41326;45.302;-122.946;2023-03-26T01:18:39;101927.24;;;18.39;47.90
55460;BME280;41326;45.302;-122.946;2023-03-26T01:21:12;101930.62;;;18.35;48.01
55460;BME280;41326;45.302;-122.946;2023-03-26T01:23:46;101935.01;;;18.34;48.08
55460;BME280;41326;45.302;-122.946;2023-03-26T01:26:20;101932.29;;;18.30;48.17
55460;BME280;41326;45.302;-122.946;2023-03-26T01:28:43;101927.84;;;18.27;48.29
55460;BME280;41326;45.302;-122.946;2023-03-26T01:31:14;101929.33;;;18.28;48.27
55460;BME280;41326;45.302;-122.946;2023-03-26T01:33:48;101928.40;;;18.29;48.16
55460;BME280;41326;45.302;-122.946;2023-03-26T01:36:18;101929.28;;;18.39;47.95
55460;BME280;41326;45.302;-122.946;2023-03-26T01:38:47;101928.36;;;18.53;47.70
55460;BME280;41326;45.302;-122.946;2023-03-26T01:41:16;101928.28;;;18.65;47.38
55460;BME280;41326;45.302;-122.946;2023-03-26T01:43:48;101929.64;;;18.66;47.30
55460;BME280;41326;45.302;-122.946;2023-03-26T01:46:15;101928.35;;;18.62;47.40
55460;BME280;41326;45.302;-122.946;2023-03-26T01:48:46;101931.51;;;18.63;47.33
55460;BME280;41326;45.302;-122.946;2023-03-26T01:53:47;101937.81;;;18.52;47.63
55460;BME280;41326;45.302;-122.946;2023-03-26T01:56:18;101944.62;;;18.49;47.68
55460;BME280;41326;45.302;-122.946;2023-03-26T01:58:56;101960.53;;;18.44;47.79
55460;BME280;41326;45.302;-122.946;2023-03-26T02:01:22;101973.72;;;18.41;47.85
55460;BME280;41326;45.302;-122.946;2023-03-26T02:03:50;101977.10;;;18.36;47.89
55460;BME280;41326;45.302;-122.946;2023-03-26T02:06:21;101978.62;;;18.43;47.79
55460;BME280;41326;45.302;-122.946;2023-03-26T02:08:49;101975.24;;;18.58;47.56
55460;BME280;41326;45.302;-122.946;2023-03-26T02:11:18;101974.08;;;18.72;47.20
55460;BME280;41326;45.302;-122.946;2023-03-26T02:13:49;101970.15;;;18.74;47.09
55460;BME280;41326;45.302;-122.946;2023-03-26T02:16:19;101968.66;;;18.68;47.20
55460;BME280;41326;45.302;-122.946;2023-03-26T02:18:48;101964.35;;;18.67;47.17
55460;BME280;41326;45.302;-122.946;2023-03-26T02:21:20;101961.41;;;18.65;47.16
55460;BME280;41326;45.302;-122.946;2023-03-26T02:23:49;101962.15;;;18.62;47.24
55460;BME280;41326;45.302;-122.946;2023-03-26T02:26:20;101966.24;;;18.56;47.41
55460;BME280;41326;45.302;-122.946;2023-03-26T02:28:50;101966.63;;;18.50;47.56
55460;BME280;41326;45.302;-122.946;2023-03-26T02:31:19;101965.40;;;18.43;47.78
55460;BME280;41326;45.302;-122.946;2023-03-26T02:33:49;101963.99;;;18.39;47.88
55460;BME280;41326;45.302;-122.946;2023-03-26T02:36:19;101963.96;;;18.37;47.78
55460;BME280;41326;45.302;-122.946;2023-03-26T02:38:49;101968.21;;;18.45;47.60
55460;BME280;41326;45.302;-122.946;2023-03-26T02:41:19;101973.67;;;18.56;47.49
55460;BME280;41326;45.302;-122.946;2023-03-26T02:43:50;101978.65;;;18.68;47.26
55460;BME280;41326;45.302;-122.946;2023-03-26T02:46:20;101982.74;;;18.70;47.14
55460;BME280;41326;45.302;-122.946;2023-03-26T02:48:51;101981.97;;;18.67;47.14
55460;BME280;41326;45.302;-122.946;2023-03-26T02:51:21;101982.16;;;18.66;47.16
55460;BME280;41326;45.302;-122.946;2023-03-26T02:53:51;101985.58;;;18.61;47.31
55460;BME280;41326;45.302;-122.946;2023-03-26T02:56:22;101984.31;;;18.53;47.48
55460;BME280;41326;45.302;-122.946;2023-03-26T02:58:52;101987.08;;;18.51;47.48
55460;BME280;41326;45.302;-122.946;2023-03-26T03:01:22;101991.05;;;18.46;47.60
55460;BME280;41326;45.302;-122.946;2023-03-26T03:03:52;101990.20;;;18.43;47.61
55460;BME280;41326;45.302;-122.946;2023-03-26T03:06:22;101988.04;;;18.56;47.40
55460;BME280;41326;45.302;-122.946;2023-03-26T03:08:52;101987.83;;;18.70;47.10
55460;BME280;41326;45.302;-122.946;2023-03-26T03:11:24;101982.24;;;18.76;47.03
55460;BME280;41326;45.302;-122.946;2023-03-26T03:13:54;101985.51;;;18.70;47.02
55460;BME280;41326;45.302;-122.946;2023-03-26T03:16:24;101985.23;;;18.68;47.10
55460;BME280;41326;45.302;-122.946;2023-03-26T03:18:54;101984.61;;;18.66;47.10
55460;BME280;41326;45.302;-122.946;2023-03-26T03:21:25;101985.08;;;18.64;47.08
55460;BME280;41326;45.302;-122.946;2023-03-26T03:23:55;101985.72;;;18.56;47.29
55460;BME280;41326;45.302;-122.946;2023-03-26T03:26:26;101990.50;;;18.52;47.39
55460;BME280;41326;45.302;-122.946;2023-03-26T03:28:56;101995.76;;;18.47;47.58
55460;BME280;41326;45.302;-122.946;2023-03-26T03:31:25;102000.51;;;18.43;47.57
55460;BME280;41326;45.302;-122.946;2023-03-26T03:33:57;101999.70;;;18.51;47.44
55460;BME280;41326;45.302;-122.946;2023-03-26T03:36:27;102003.62;;;18.66;47.29
55460;BME280;41326;45.302;-122.946;2023-03-26T03:38:58;102002.59;;;18.80;46.81
55460;BME280;41326;45.302;-122.946;2023-03-26T03:41:28;102000.57;;;18.82;46.69
55460;BME280;41326;45.302;-122.946;2023-03-26T03:43:58;102002.84;;;18.74;46.89
55460;BME280;41326;45.302;-122.946;2023-03-26T03:46:28;102006.08;;;18.74;46.82
55460;BME280;41326;45.302;-122.946;2023-03-26T03:48:58;102006.84;;;18.67;46.98
55460;BME280;41326;45.302;-122.946;2023-03-26T03:52:38;102007.37;;;18.59;47.22
55460;BME280;41326;45.302;-122.946;2023-03-26T03:55:09;102009.53;;;18.50;47.48
55460;BME280;41326;45.302;-122.946;2023-03-26T03:57:39;102013.52;;;18.46;47.48
55460;BME280;41326;45.302;-122.946;2023-03-26T04:00:10;102014.33;;;18.44;47.48
55460;BME280;41326;45.302;-122.946;2023-03-26T04:02:40;102017.49;;;18.47;47.43
55460;BME280;41326;45.302;-122.946;2023-03-26T04:05:10;102022.61;;;18.49;47.41
55460;BME280;41326;45.302;-122.946;2023-03-26T04:07:39;102024.48;;;18.45;47.50
55460;BME280;41326;45.302;-122.946;2023-03-26T04:10:12;102022.50;;;18.43;47.49
55460;BME280;41326;45.302;-122.946;2023-03-26T04:12:40;102023.36;;;18.39;47.63
55460;BME280;41326;45.302;-122.946;2023-03-26T04:15:11;102025.48;;;18.33;47.85
55460;BME280;41326;45.302;-122.946;2023-03-26T04:17:41;102026.42;;;18.30;47.84
55460;BME280;41326;45.302;-122.946;2023-03-26T04:20:12;102028.21;;;18.31;47.68
55460;BME280;41326;45.302;-122.946;2023-03-26T04:22:41;102032.94;;;18.27;47.83
55460;BME280;41326;45.302;-122.946;2023-03-26T04:25:12;102033.88;;;18.24;47.86
55460;BME280;41326;45.302;-122.946;2023-03-26T04:27:42;102039.26;;;18.22;48.00
55460;BME280;41326;45.302;-122.946;2023-03-26T04:30:16;102042.88;;;18.20;47.97
55460;BME280;41326;45.302;-122.946;2023-03-26T04:32:43;102041.75;;;18.15;48.14
55460;BME280;41326;45.302;-122.946;2023-03-26T04:35:16;102042.15;;;18.12;48.18
55460;BME280;41326;45.302;-122.946;2023-03-26T04:37:45;102041.63;;;18.09;48.22
55460;BME280;41326;45.302;-122.946;2023-03-26T04:40:18;102043.43;;;18.07;48.22
55460;BME280;41326;45.302;-122.946;2023-03-26T04:42:48;102044.14;;;18.05;48.25
55460;BME280;41326;45.302;-122.946;2023-03-26T04:45:19;102044.80;;;18.02;48.35
55460;BME280;41326;45.302;-122.946;2023-03-26T04:47:49;102047.02;;;18.03;48.31
55460;BME280;41326;45.302;-122.946;2023-03-26T04:50:19;102050.29;;;17.99;48.40
55460;BME280;41326;45.302;-122.946;2023-03-26T04:52:50;102053.81;;;17.97;48.43
55460;BME280;41326;45.302;-122.946;2023-03-26T04:55:26;102054.38;;;17.93;48.48
55460;BME280;41326;45.302;-122.946;2023-03-26T04:57:53;102058.75;;;17.88;48.59
55460;BME280;41326;45.302;-122.946;2023-03-26T05:00:21;102058.37;;;17.89;48.48
55460;BME280;41326;45.302;-122.946;2023-03-26T05:02:52;102064.99;;;17.88;48.46
55460;BME280;41326;45.302;-122.946;2023-03-26T05:05:20;102070.28;;;17.80;48.68
55460;BME280;41326;45.302;-122.946;2023-03-26T05:07:51;102076.64;;;17.78;48.77
55460;BME280;41326;45.302;-122.946;2023-03-26T05:10:21;102081.35;;;17.79;48.73
55460;BME280;41326;45.302;-122.946;2023-03-26T05:12:52;102084.14;;;17.74;48.82
55460;BME280;41326;45.302;-122.946;2023-03-26T05:15:21;102086.13;;;17.71;48.83
55460;BME280;41326;45.302;-122.946;2023-03-26T05:17:52;102087.57;;;17.68;48.88
55460;BME280;41326;45.302;-122.946;2023-03-26T05:20:25;102084.17;;;17.70;48.72
55460;BME280;41326;45.302;-122.946;2023-03-26T05:22:53;102085.27;;;17.67;48.70
55460;BME280;41326;45.302;-122.946;2023-03-26T05:25:23;102085.54;;;17.65;48.84
55460;BME280;41326;45.302;-122.946;2023-03-26T05:27:53;102085.96;;;17.60;48.92
55460;BME280;41326;45.302;-122.946;2023-03-26T05:30:24;102089.92;;;17.58;48.96
55460;BME280;41326;45.302;-122.946;2023-03-26T05:32:55;102090.61;;;17.57;48.95
55460;BME280;41326;45.302;-122.946;2023-03-26T05:35:24;102093.29;;;17.53;49.04
55460;BME280;41326;45.302;-122.946;2023-03-26T05:37:54;102091.85;;;17.52;49.01
55460;BME280;41326;45.302;-122.946;2023-03-26T05:40:25;102088.81;;;17.50;48.95
55460;BME280;41326;45.302;-122.946;2023-03-26T05:42:55;102086.83;;;17.46;49.09
55460;BME280;41326;45.302;-122.946;2023-03-26T05:45:26;102084.33;;;17.45;49.04
55460;BME280;41326;45.302;-122.946;2023-03-26T05:47:56;102082.67;;;17.43;49.11
55460;BME280;41326;45.302;-122.946;2023-03-26T05:50:26;102086.87;;;17.42;49.14
55460;BME280;41326;45.302;-122.946;2023-03-26T05:52:57;102086.62;;;17.40;49.15
55460;BME280;41326;45.302;-122.946;2023-03-26T05:55:27;102086.89;;;17.38;49.18
55460;BME280;41326;45.302;-122.946;2023-03-26T05:57:58;102086.84;;;17.37;49.11
55460;BME280;41326;45.302;-122.946;2023-03-26T06:00:28;102085.30;;;17.36;49.05
55460;BME280;41326;45.302;-122.946;2023-03-26T06:02:58;102081.70;;;17.35;49.04
55460;BME280;41326;45.302;-122.946;2023-03-26T06:05:28;102079.99;;;17.27;49.27
55460;BME280;41326;45.302;-122.946;2023-03-26T06:07:58;102082.20;;;17.26;49.27
55460;BME280;41326;45.302;-122.946;2023-03-26T06:10:29;102083.57;;;17.23;49.34
55460;BME280;41326;45.302;-122.946;2023-03-26T06:12:59;102085.26;;;17.20;49.39
55460;BME280;41326;45.302;-122.946;2023-03-26T06:15:30;102090.26;;;17.21;49.28
55460;BME280;41326;45.302;-122.946;2023-03-26T06:17:59;102089.41;;;17.18;49.37
55460;BME280;41326;45.302;-122.946;2023-03-26T06:20:30;102089.38;;;17.17;49.32
55460;BME280;41326;45.302;-122.946;2023-03-26T06:23:01;102086.19;;;17.15;49.33
55460;BME280;41326;45.302;-122.946;2023-03-26T06:25:31;102084.12;;;17.11;49.46
55460;BME280;41326;45.302;-122.946;2023-03-26T06:28:01;102085.77;;;17.07;49.55
55460;BME280;41326;45.302;-122.946;2023-03-26T06:30:32;102088.40;;;17.07;49.51
55460;BME280;41326;45.302;-122.946;2023-03-26T06:33:03;102091.41;;;17.06;49.50
55460;BME280;41326;45.302;-122.946;2023-03-26T06:35:33;102091.50;;;17.05;49.48
55460;BME280;41326;45.302;-122.946;2023-03-26T06:38:04;102089.93;;;17.02;49.49
55460;BME280;41326;45.302;-122.946;2023-03-26T06:40:34;102095.52;;;17.01;49.45
55460;BME280;41326;45.302;-122.946;2023-03-26T06:43:05;102100.95;;;16.99;49.41
55460;BME280;41326;45.302;-122.946;2023-03-26T06:45:35;102100.19;;;16.96;49.51
55460;BME280;41326;45.302;-122.946;2023-03-26T06:48:05;102100.65;;;16.93;49.61
55460;BME280;41326;45.302;-122.946;2023-03-26T06:50:35;102099.04;;;16.92;49.58
55460;BME280;41326;45.302;-122.946;2023-03-26T06:53:06;102098.44;;;16.90;49.60
55460;BME280;41326;45.302;-122.946;2023-03-26T06:55:35;102101.42;;;16.90;49.59
55460;BME280;41326;45.302;-122.946;2023-03-26T06:58:06;102102.90;;;16.92;49.43
55460;BME280;41326;45.302;-122.946;2023-03-26T07:00:37;102108.61;;;16.92;49.32
55460;BME280;41326;45.302;-122.946;2023-03-26T07:03:08;102115.40;;;16.92;49.32
55460;BME280;41326;45.302;-122.946;2023-03-26T07:05:37;102112.39;;;16.87;49.47
55460;BME280;41326;45.302;-122.946;2023-03-26T07:08:07;102119.02;;;16.82;49.56
55460;BME280;41326;45.302;-122.946;2023-03-26T07:10:38;102115.56;;;16.79;49.63
55460;BME280;41326;45.302;-122.946;2023-03-26T07:13:09;102115.72;;;16.76;49.76
55460;BME280;41326;45.302;-122.946;2023-03-26T07:15:38;102114.69;;;16.71;49.85
55460;BME280;41326;45.302;-122.946;2023-03-26T07:18:09;102115.35;;;16.75;49.58
55460;BME280;41326;45.302;-122.946;2023-03-26T07:20:40;102114.55;;;16.74;49.55
55460;BME280;41326;45.302;-122.946;2023-03-26T07:23:10;102113.18;;;16.71;49.59
55460;BME280;41326;45.302;-122.946;2023-03-26T07:25:40;102113.82;;;16.71;49.59
55460;BME280;41326;45.302;-122.946;2023-03-26T07:28:19;102113.64;;;16.66;49.71
55460;BME280;41326;45.302;-122.946;2023-03-26T07:30:49;102115.11;;;16.62;49.81
55460;BME280;41326;45.302;-122.946;2023-03-26T07:33:17;102114.45;;;16.60;49.85
55460;BME280;41326;45.302;-122.946;2023-03-26T07:35:47;102112.37;;;16.59;49.80
55460;BME280;41326;45.302;-122.946;2023-03-26T07:38:21;102114.88;;;16.55;49.82
55460;BME280;41326;45.302;-122.946;2023-03-26T07:40:51;102116.99;;;16.57;49.69
55460;BME280;41326;45.302;-122.946;2023-03-26T07:43:22;102114.42;;;16.51;49.81
55460;BME280;41326;45.302;-122.946;2023-03-26T07:45:44;102116.19;;;16.50;49.93
55460;BME280;41326;45.302;-122.946;2023-03-26T07:48:18;102115.82;;;16.47;49.93
55460;BME280;41326;45.302;-122.946;2023-03-26T07:50:44;102117.06;;;16.49;49.85
55460;BME280;41326;45.302;-122.946;2023-03-26T07:53:14;102118.71;;;16.46;49.84
55460;BME280;41326;45.302;-122.946;2023-03-26T07:55:51;102120.22;;;16.39;50.05
55460;BME280;41326;45.302;-122.946;2023-03-26T07:58:26;102117.40;;;16.40;49.97
55460;BME280;41326;45.302;-122.946;2023-03-26T08:00:47;102120.00;;;16.40;49.85
55460;BME280;41326;45.302;-122.946;2023-03-26T08:03:25;102118.56;;;16.34;50.04
55460;BME280;41326;45.302;-122.946;2023-03-26T08:05:50;102119.55;;;16.34;49.99
55460;BME280;41326;45.302;-122.946;2023-03-26T08:08:22;102120.71;;;16.35;49.94
55460;BME280;41326;45.302;-122.946;2023-03-26T08:10:57;102121.45;;;16.32;50.02
55460;BME280;41326;45.302;-122.946;2023-03-26T08:13:27;102121.85;;;16.34;49.90
55460;BME280;41326;45.302;-122.946;2023-03-26T08:15:52;102122.74;;;16.29;50.06
55460;BME280;41326;45.302;-122.946;2023-03-26T08:18:28;102119.29;;;16.26;50.03
55460;BME280;41326;45.302;-122.946;2023-03-26T08:20:52;102116.87;;;16.26;49.95
55460;BME280;41326;45.302;-122.946;2023-03-26T08:23:26;102112.91;;;16.24;50.00
55460;BME280;41326;45.302;-122.946;2023-03-26T08:25:57;102115.75;;;16.24;50.03
55460;BME280;41326;45.302;-122.946;2023-03-26T08:28:28;102117.52;;;16.22;50.02
55460;BME280;41326;45.302;-122.946;2023-03-26T08:30:50;102121.42;;;16.18;50.13
55460;BME280;41326;45.302;-122.946;2023-03-26T08:33:24;102120.96;;;16.19;50.05
55460;BME280;41326;45.302;-122.946;2023-03-26T08:35:50;102119.65;;;16.19;50.01
55460;BME280;41326;45.302;-122.946;2023-03-26T08:38:21;102120.42;;;16.17;50.01
55460;BME280;41326;45.302;-122.946;2023-03-26T08:46:07;102119.24;;;16.14;49.94
55460;BME280;41326;45.302;-122.946;2023-03-26T08:53:30;102113.49;;;16.00;50.25
55460;BME280;41326;45.302;-122.946;2023-03-26T08:55:57;102114.86;;;16.02;50.14
55460;BME280;41326;45.302;-122.946;2023-03-26T09:06:11;102114.25;;;16.01;49.94
55460;BME280;41326;45.302;-122.946;2023-03-26T09:08:35;102115.34;;;15.99;49.95
55460;BME280;41326;45.302;-122.946;2023-03-26T09:11:08;102113.07;;;15.96;50.00
55460;BME280;41326;45.302;-122.946;2023-03-26T09:26:03;102115.83;;;15.85;50.06
55460;BME280;41326;45.302;-122.946;2023-03-26T09:38:40;102116.34;;;15.76;50.12
55460;BME280;41326;45.302;-122.946;2023-03-26T09:41:05;102114.69;;;15.71;50.16
55460;BME280;41326;45.302;-122.946;2023-03-26T09:46:11;102115.08;;;15.70;50.18
55460;BME280;41326;45.302;-122.946;2023-03-26T09:48:42;102111.73;;;15.69;50.17
55460;BME280;41326;45.302;-122.946;2023-03-26T09:51:12;102112.70;;;15.66;50.22
55460;BME280;41326;45.302;-122.946;2023-03-26T09:53:42;102116.22;;;15.63;50.29
55460;BME280;41326;45.302;-122.946;2023-03-26T09:56:08;102114.52;;;15.62;50.25
55460;BME280;41326;45.302;-122.946;2023-03-26T09:58:48;102115.03;;;15.60;50.22
55460;BME280;41326;45.302;-122.946;2023-03-26T10:01:05;102116.46;;;15.60;50.18
55460;BME280;41326;45.302;-122.946;2023-03-26T10:03:41;102118.98;;;15.58;50.19
55460;BME280;41326;45.302;-122.946;2023-03-26T10:11:07;102123.02;;;15.51;50.28
55460;BME280;41326;45.302;-122.946;2023-03-26T10:13:39;102118.22;;;15.51;50.31
55460;BME280;41326;45.302;-122.946;2023-03-26T10:16:15;102118.67;;;15.52;50.22
55460;BME280;41326;45.302;-122.946;2023-03-26T10:18:43;102123.39;;;15.51;50.17
55460;BME280;41326;45.302;-122.946;2023-03-26T10:21:11;102127.12;;;15.53;50.03
55460;BME280;41326;45.302;-122.946;2023-03-26T10:23:46;102131.15;;;15.50;50.12
55460;BME280;41326;45.302;-122.946;2023-03-26T10:26:18;102129.35;;;15.50;50.08
55460;BME280;41326;45.302;-122.946;2023-03-26T10:33:44;102128.40;;;15.39;50.28
55460;BME280;41326;45.302;-122.946;2023-03-26T10:36:17;102124.71;;;15.37;50.34
55460;BME280;41326;45.302;-122.946;2023-03-26T10:41:11;102120.58;;;15.34;50.27
55460;BME280;41326;45.302;-122.946;2023-03-26T10:48:51;102131.37;;;15.31;50.30
55460;BME280;41326;45.302;-122.946;2023-03-26T10:51:22;102129.18;;;15.28;50.30
55460;BME280;41326;45.302;-122.946;2023-03-26T10:53:43;102126.46;;;15.25;50.37
55460;BME280;41326;45.302;-122.946;2023-03-26T10:56:16;102127.09;;;15.25;50.33
55460;BME280;41326;45.302;-122.946;2023-03-26T10:58:41;102127.20;;;15.23;50.31
55460;BME280;41326;45.302;-122.946;2023-03-26T11:01:19;102126.16;;;15.21;50.31
55460;BME280;41326;45.302;-122.946;2023-03-26T11:03:50;102132.27;;;15.19;50.35
55460;BME280;41326;45.302;-122.946;2023-03-26T11:06:22;102131.07;;;15.15;50.42
55460;BME280;41326;45.302;-122.946;2023-03-26T11:08:48;102126.09;;;15.12;50.44
55460;BME280;41326;45.302;-122.946;2023-03-26T11:11:20;102124.64;;;15.11;50.49
55460;BME280;41326;45.302;-122.946;2023-03-26T11:13:50;102124.12;;;15.11;50.41
55460;BME280;41326;45.302;-122.946;2023-03-26T11:16:18;102123.53;;;15.10;50.44
55460;BME280;41326;45.302;-122.946;2023-03-26T11:18:48;102123.32;;;15.08;50.39
55460;BME280;41326;45.302;-122.946;2023-03-26T11:21:17;102125.32;;;15.05;50.41
55460;BME280;41326;45.302;-122.946;2023-03-26T11:23:53;102127.19;;;15.07;50.33
55460;BME280;41326;45.302;-122.946;2023-03-26T11:26:17;102127.83;;;15.05;50.40
55460;BME280;41326;45.302;-122.946;2023-03-26T11:28:56;102130.07;;;15.05;50.38
55460;BME280;41326;45.302;-122.946;2023-03-26T11:31:23;102130.14;;;15.01;50.47
55460;BME280;41326;45.302;-122.946;2023-03-26T11:33:49;102131.83;;;14.96;50.58
55460;BME280;41326;45.302;-122.946;2023-03-26T11:36:18;102132.27;;;14.98;50.45
55460;BME280;41326;45.302;-122.946;2023-03-26T11:38:49;102132.65;;;14.96;50.44
55460;BME280;41326;45.302;-122.946;2023-03-26T11:41:20;102130.43;;;14.97;50.36
55460;BME280;41326;45.302;-122.946;2023-03-26T11:43:49;102131.30;;;14.98;50.26
55460;BME280;41326;45.302;-122.946;2023-03-26T11:46:21;102130.54;;;15.10;50.12
55460;BME280;41326;45.302;-122.946;2023-03-26T11:48:51;102129.85;;;15.30;49.67
55460;BME280;41326;45.302;-122.946;2023-03-26T11:51:22;102133.27;;;15.43;49.44
55460;BME280;41326;45.302;-122.946;2023-03-26T11:53:48;102133.39;;;15.46;49.22
55460;BME280;41326;45.302;-122.946;2023-03-26T11:56:25;102132.84;;;15.42;49.22
55460;BME280;41326;45.302;-122.946;2023-03-26T11:58:54;102135.14;;;15.42;49.10
55460;BME280;41326;45.302;-122.946;2023-03-26T12:01:21;102133.11;;;15.41;49.11
55460;BME280;41326;45.302;-122.946;2023-03-26T12:03:55;102133.62;;;15.37;49.20
55460;BME280;41326;45.302;-122.946;2023-03-26T12:06:24;102135.20;;;15.33;49.29
55460;BME280;41326;45.302;-122.946;2023-03-26T12:08:51;102135.24;;;15.27;49.42
55460;BME280;41326;45.302;-122.946;2023-03-26T12:11:21;102135.32;;;15.22;49.55
55460;BME280;41326;45.302;-122.946;2023-03-26T12:13:58;102137.65;;;15.18;49.60
55460;BME280;41326;45.302;-122.946;2023-03-26T12:16:22;102135.02;;;15.13;49.72
55460;BME280;41326;45.302;-122.946;2023-03-26T12:21:22;102136.59;;;15.10;49.73
55460;BME280;41326;45.302;-122.946;2023-03-26T12:23:56;102135.04;;;15.07;49.79
55460;BME280;41326;45.302;-122.946;2023-03-26T12:28:53;102134.48;;;15.01;49.95
55460;BME280;41326;45.302;-122.946;2023-03-26T12:31:22;102134.47;;;15.00;49.92
55460;BME280;41326;45.302;-122.946;2023-03-26T12:34:04;102131.46;;;15.06;49.86
55460;BME280;41326;45.302;-122.946;2023-03-26T12:36:25;102133.35;;;15.19;49.57
55460;BME280;41326;45.302;-122.946;2023-03-26T12:38:53;102138.84;;;15.38;49.23
55460;BME280;41326;45.302;-122.946;2023-03-26T12:43:54;102142.15;;;15.50;48.80
55460;BME280;41326;45.302;-122.946;2023-03-26T12:46:28;102143.07;;;15.51;48.70
55460;BME280;41326;45.302;-122.946;2023-03-26T12:48:54;102140.72;;;15.46;48.69
55460;BME280;41326;45.302;-122.946;2023-03-26T12:51:35;102141.75;;;15.48;48.79
55460;BME280;41326;45.302;-122.946;2023-03-26T12:54:06;102139.38;;;15.61;48.59
55460;BME280;41326;45.302;-122.946;2023-03-26T12:56:30;102147.26;;;15.75;48.31
55460;BME280;41326;45.302;-122.946;2023-03-26T13:01:34;102149.35;;;16.07;47.69
55460;BME280;41326;45.302;-122.946;2023-03-26T13:04:06;102147.59;;;16.18;47.48
55460;BME280;41326;45.302;-122.946;2023-03-26T13:06:33;102145.94;;;16.18;47.44
55460;BME280;41326;45.302;-122.946;2023-03-26T13:09:08;102145.51;;;16.14;47.38
55460;BME280;41326;45.302;-122.946;2023-03-26T13:12:40;102145.58;;;16.23;47.34
55460;BME280;41326;45.302;-122.946;2023-03-26T13:15:12;102143.28;;;16.43;47.17
55460;BME280;41326;45.302;-122.946;2023-03-26T13:17:41;102145.36;;;16.61;46.73
55460;BME280;41326;45.302;-122.946;2023-03-26T13:20:11;102146.59;;;16.74;46.54
55460;BME280;41326;45.302;-122.946;2023-03-26T13:22:45;102146.73;;;16.86;46.15
55460;BME280;41326;45.302;-122.946;2023-03-26T13:25:17;102147.46;;;16.90;46.14
55460;BME280;41326;45.302;-122.946;2023-03-26T13:27:48;102150.57;;;16.86;46.04
55460;BME280;41326;45.302;-122.946;2023-03-26T13:30:17;102149.60;;;16.92;46.06
55460;BME280;41326;45.302;-122.946;2023-03-26T13:32:50;102146.43;;;17.03;46.01
55460;BME280;41326;45.302;-122.946;2023-03-26T13:35:20;102142.15;;;17.19;45.76
55460;BME280;41326;45.302;-122.946;2023-03-26T13:37:46;102142.96;;;17.32;45.44
55460;BME280;41326;45.302;-122.946;2023-03-26T13:40:21;102145.90;;;17.48;45.20
55460;BME280;41326;45.302;-122.946;2023-03-26T13:42:48;102144.84;;;17.58;44.99
55460;BME280;41326;45.302;-122.946;2023-03-26T13:45:21;102144.15;;;17.72;44.67
55460;BME280;41326;45.302;-122.946;2023-03-26T13:47:44;102148.79;;;17.79;44.60
55460;BME280;41326;45.302;-122.946;2023-03-26T13:50:19;102145.82;;;17.83;44.55